createdAt,value
2022-07-29T00:01:54.634Z,56.60
2022-07-29T00:04:22.242Z,56.70
2022-07-29T00:06:49.671Z,56.80
2022-07-29T00:09:16.788Z,56.90
2022-07-29T00:11:44.343Z,56.90
2022-07-29T00:14:11.740Z,57.10
2022-07-29T00:16:39.184Z,57.20
2022-07-29T00:19:07.847Z,57.20
2022-07-29T00:21:35.285Z,57.30
2022-07-29T00:24:02.609Z,57.40
2022-07-29T00:26:32.615Z,57.40
2022-07-29T00:31:52.616Z,57.70
2022-07-29T00:34:38.638Z,57.30
2022-07-29T00:37:05.973Z,57.30
2022-07-29T00:39:35.040Z,57.40
2022-07-29T00:42:05.605Z,57.70
2022-07-29T00:44:37.831Z,57.80
2022-07-29T00:47:05.094Z,57.50
2022-07-29T00:49:32.272Z,57.80
2022-07-29T00:52:01.504Z,57.90
2022-07-29T00:54:30.002Z,58.00
2022-07-29T00:57:00.134Z,58.10
2022-07-29T00:59:35.205Z,58.50
2022-07-29T01:02:04.397Z,58.60
2022-07-29T01:04:33.103Z,58.50
2022-07-29T01:07:03.158Z,58.40
2022-07-29T01:09:46.294Z,58.50
2022-07-29T01:12:18.466Z,58.40
2022-07-29T01:14:47.188Z,58.50
2022-07-29T01:17:28.382Z,58.70
2022-07-29T01:19:58.316Z,59.10
2022-07-29T01:22:52.275Z,58.50
2022-07-29T01:25:40.308Z,58.60
2022-07-29T01:28:32.152Z,58.60
2022-07-29T01:31:02.025Z,58.80
2022-07-29T01:33:50.893Z,58.50
2022-07-29T01:36:51.846Z,58.90
2022-07-29T01:39:34.278Z,59.00
2022-07-29T01:42:37.092Z,60.20
2022-07-29T01:45:22.981Z,58.70
2022-07-29T01:48:31.329Z,59.40
2022-07-29T01:51:07.200Z,59.30
2022-07-29T01:53:47.559Z,59.50
2022-07-29T01:56:18.374Z,59.40
2022-07-29T01:58:48.030Z,59.40
2022-07-29T02:01:17.289Z,59.60
2022-07-29T02:03:46.721Z,59.60
2022-07-29T02:06:17.989Z,59.60
2022-07-29T02:08:46.340Z,59.60
2022-07-29T02:11:13.384Z,59.80
2022-07-29T02:13:42.204Z,59.70
2022-07-29T02:16:10.773Z,59.80
2022-07-29T02:18:40.858Z,60.00
2022-07-29T02:21:14.848Z,60.10
2022-07-29T02:23:50.443Z,60.10
2022-07-29T02:26:21.358Z,60.20
2022-07-29T02:28:51.537Z,60.40
2022-07-29T02:31:26.045Z,60.50
2022-07-29T02:33:54.902Z,60.90
2022-07-29T02:36:24.744Z,60.80
2022-07-29T02:38:52.551Z,61.00
2022-07-29T02:41:37.244Z,60.80
2022-07-29T02:44:11.570Z,61.10
2022-07-29T02:46:53.417Z,61.30
2022-07-29T02:49:47.912Z,61.50
2022-07-29T02:52:31.718Z,61.60
2022-07-29T02:55:09.851Z,61.50
2022-07-29T02:57:54.563Z,61.20
2022-07-29T03:00:28.738Z,61.80
2022-07-29T03:03:00.874Z,61.60
2022-07-29T03:05:28.949Z,61.50
2022-07-29T03:08:07.234Z,61.50
2022-07-29T03:10:35.332Z,61.80
2022-07-29T03:13:02.992Z,61.40
2022-07-29T03:15:31.032Z,61.50
2022-07-29T03:17:59.721Z,61.50
2022-07-29T03:20:27.466Z,61.50
2022-07-29T03:22:54.782Z,61.70
2022-07-29T03:25:22.756Z,61.60
2022-07-29T03:27:50.169Z,61.70
2022-07-29T03:30:21.982Z,61.80
2022-07-29T03:32:54.166Z,61.70
2022-07-29T03:35:23.793Z,61.90
2022-07-29T03:37:50.957Z,61.90
2022-07-29T03:40:36.328Z,61.90
2022-07-29T03:43:04.756Z,62.40
2022-07-29T03:45:33.159Z,62.10
2022-07-29T03:48:09.805Z,62.10
2022-07-29T03:50:37.653Z,62.60
2022-07-29T03:53:05.165Z,61.90
2022-07-29T03:55:41.345Z,62.00
2022-07-29T03:58:09.379Z,62.30
2022-07-29T04:00:38.753Z,62.10
2022-07-29T04:03:10.575Z,62.20
2022-07-29T04:05:39.228Z,62.20
2022-07-29T04:08:07.004Z,62.10
2022-07-29T04:10:34.359Z,62.10
2022-07-29T04:13:03.385Z,62.30
2022-07-29T04:15:30.888Z,62.30
2022-07-29T04:18:00.253Z,62.30
2022-07-29T04:20:27.762Z,62.60
2022-07-29T04:22:55.229Z,62.60
2022-07-29T04:25:22.270Z,62.60
2022-07-29T04:28:04.154Z,62.80
2022-07-29T04:30:32.864Z,63.00
2022-07-29T04:33:01.851Z,63.10
2022-07-29T04:35:37.992Z,63.00
2022-07-29T04:38:07.431Z,63.00
2022-07-29T04:40:42.547Z,62.70
2022-07-29T04:43:10.265Z,63.10
2022-07-29T04:45:39.754Z,62.80
2022-07-29T04:48:07.134Z,62.60
2022-07-29T04:50:34.446Z,62.70
2022-07-29T04:53:01.821Z,62.50
2022-07-29T04:55:29.265Z,62.30
2022-07-29T04:57:56.628Z,62.30
2022-07-29T05:00:28.057Z,62.50
2022-07-29T05:03:01.125Z,62.30
2022-07-29T05:05:28.341Z,62.30
2022-07-29T05:07:56.178Z,62.50
2022-07-29T05:10:23.934Z,62.30
2022-07-29T05:12:51.332Z,62.20
2022-07-29T05:15:18.825Z,62.20
2022-07-29T05:17:46.386Z,62.10
2022-07-29T05:20:13.569Z,62.20
2022-07-29T05:22:40.584Z,62.20
2022-07-29T05:25:10.082Z,62.00
2022-07-29T05:27:38.053Z,61.90
2022-07-29T05:30:06.168Z,61.90
2022-07-29T05:32:33.288Z,61.90
2022-07-29T05:35:00.436Z,61.80
2022-07-29T05:37:27.694Z,61.70
2022-07-29T05:39:57.418Z,61.80
2022-07-29T05:42:27.453Z,61.80
2022-07-29T05:44:54.703Z,61.60
2022-07-29T05:47:22.178Z,61.50
2022-07-29T05:49:50.069Z,61.50
2022-07-29T05:52:17.746Z,61.40
2022-07-29T05:54:45.132Z,62.30
2022-07-29T05:57:25.028Z,61.30
2022-07-29T05:59:52.945Z,61.10
2022-07-29T06:02:20.629Z,61.10
2022-07-29T06:04:47.843Z,61.00
2022-07-29T06:07:14.961Z,60.90
2022-07-29T06:09:42.242Z,60.90
2022-07-29T06:12:10.372Z,60.70
2022-07-29T06:14:38.874Z,60.70
2022-07-29T06:17:06.795Z,60.80
2022-07-29T06:19:37.124Z,61.70
2022-07-29T06:22:04.854Z,60.90
2022-07-29T06:24:31.977Z,61.10
2022-07-29T06:26:59.514Z,61.10
2022-07-29T06:29:26.674Z,61.00
2022-07-29T06:31:53.732Z,60.80
2022-07-29T06:34:21.063Z,60.70
2022-07-29T06:36:48.465Z,60.60
2022-07-29T06:39:17.078Z,60.60
2022-07-29T06:41:51.544Z,60.50
2022-07-29T06:44:20.158Z,60.30
2022-07-29T06:46:50.151Z,60.30
2022-07-29T06:49:17.567Z,60.30
2022-07-29T06:51:44.581Z,60.20
2022-07-29T06:54:11.806Z,60.10
2022-07-29T06:56:42.065Z,60.00
2022-07-29T06:59:11.278Z,59.80
2022-07-29T07:01:41.485Z,59.70
2022-07-29T07:04:09.756Z,59.80
2022-07-29T07:06:37.754Z,59.80
2022-07-29T07:09:05.609Z,59.80
2022-07-29T07:11:33.014Z,59.90
2022-07-29T07:14:14.423Z,59.80
2022-07-29T07:16:41.536Z,59.80
2022-07-29T07:19:08.786Z,59.80
2022-07-29T07:21:36.366Z,59.80
2022-07-29T07:24:03.892Z,59.70
2022-07-29T07:26:31.209Z,59.90
2022-07-29T07:29:01.262Z,59.90
2022-07-29T07:31:28.400Z,60.00
2022-07-29T07:33:55.893Z,59.90
2022-07-29T07:36:24.189Z,60.10
2022-07-29T07:38:51.502Z,60.00
2022-07-29T07:41:18.902Z,60.10
2022-07-29T07:43:46.092Z,60.10
2022-07-29T07:46:13.771Z,60.10
2022-07-29T07:48:41.158Z,60.10
2022-07-29T07:51:08.559Z,60.10
2022-07-29T07:53:36.098Z,60.10
2022-07-29T07:56:12.509Z,60.00
2022-07-29T07:58:40.243Z,59.90
2022-07-29T08:01:07.792Z,60.10
2022-07-29T08:03:35.503Z,60.30
2022-07-29T08:06:04.279Z,59.70
2022-07-29T08:08:31.550Z,59.80
2022-07-29T08:11:02.248Z,59.70
2022-07-29T08:13:33.072Z,59.80
2022-07-29T08:16:12.565Z,59.80
2022-07-29T08:18:42.141Z,59.90
2022-07-29T08:21:09.574Z,59.70
2022-07-29T08:23:46.880Z,59.80
2022-07-29T08:26:15.292Z,59.80
2022-07-29T08:28:51.187Z,59.70
2022-07-29T08:31:19.209Z,59.70
2022-07-29T08:33:46.841Z,59.70
2022-07-29T08:36:14.476Z,59.40
2022-07-29T08:38:41.721Z,59.40
2022-07-29T08:41:08.788Z,59.40
2022-07-29T08:43:38.653Z,59.60
2022-07-29T08:46:05.744Z,59.40
2022-07-29T08:48:33.628Z,59.50
2022-07-29T08:51:01.589Z,59.50
2022-07-29T08:53:30.491Z,59.50
2022-07-29T08:55:59.010Z,59.30
2022-07-29T08:58:28.041Z,59.30
2022-07-29T09:00:58.228Z,59.30
2022-07-29T09:03:31.335Z,59.10
2022-07-29T09:06:00.515Z,59.30
2022-07-29T09:08:28.536Z,59.40
2022-07-29T09:10:59.395Z,59.40
2022-07-29T09:13:27.228Z,59.40
2022-07-29T09:15:54.923Z,59.40
2022-07-29T09:18:37.405Z,59.50
2022-07-29T09:21:25.893Z,59.20
2022-07-29T09:24:11.230Z,59.50
2022-07-29T09:26:46.391Z,59.30
2022-07-29T09:29:17.388Z,59.20
2022-07-29T09:31:49.017Z,59.20
2022-07-29T09:34:22.762Z,59.10
2022-07-29T09:36:51.829Z,58.80
2022-07-29T09:39:36.918Z,58.50
2022-07-29T09:42:07.001Z,58.50
2022-07-29T09:44:47.635Z,58.60
2022-07-29T09:47:15.338Z,58.50
2022-07-29T09:50:01.401Z,58.30
2022-07-29T09:52:30.663Z,58.00
2022-07-29T09:55:09.134Z,57.90
2022-07-29T09:57:37.365Z,57.90
2022-07-29T10:00:09.060Z,57.80
2022-07-29T10:02:45.017Z,57.30
2022-07-29T10:05:36.056Z,57.10
2022-07-29T10:08:04.787Z,57.40
2022-07-29T10:10:35.340Z,56.70
2022-07-29T10:13:09.933Z,56.60
2022-07-29T10:15:46.332Z,56.90
2022-07-29T10:18:15.702Z,56.70
2022-07-29T10:20:42.874Z,56.50
2022-07-29T10:23:10.639Z,56.10
2022-07-29T10:25:38.027Z,56.10
2022-07-29T10:28:07.193Z,55.80
2022-07-29T10:30:34.976Z,56.80
2022-07-29T10:33:38.767Z,55.20
2022-07-29T10:36:20.333Z,55.00
2022-07-29T10:39:41.749Z,54.60
2022-07-29T10:42:33.333Z,54.70
2022-07-29T10:45:04.326Z,54.20
2022-07-29T10:47:32.407Z,54.40
2022-07-29T10:50:07.463Z,54.50
2022-07-29T10:52:55.305Z,54.00
2022-07-29T10:55:43.417Z,54.30
2022-07-29T10:58:19.820Z,53.90
2022-07-29T11:00:50.207Z,53.80
2022-07-29T11:03:52.335Z,53.50
2022-07-29T11:06:26.325Z,53.90
2022-07-29T11:09:34.789Z,53.40
2022-07-29T11:12:25.889Z,53.60
2022-07-29T11:15:02.618Z,54.30
2022-07-29T11:17:37.577Z,52.70
2022-07-29T11:20:33.896Z,52.80
2022-07-29T11:23:02.043Z,52.70
2022-07-29T11:25:50.711Z,52.30
2022-07-29T11:28:23.144Z,53.20
2022-07-29T11:30:54.859Z,51.70
2022-07-29T11:33:54.458Z,51.20
2022-07-29T11:36:28.183Z,51.40
2022-07-29T11:39:26.868Z,51.40
2022-07-29T11:42:28.523Z,51.70
2022-07-29T11:48:03.648Z,51.10
2022-07-29T11:50:36.932Z,50.50
2022-07-29T11:53:13.257Z,50.00
2022-07-29T11:55:50.772Z,49.40
2022-07-29T11:58:26.249Z,48.70
2022-07-29T12:00:55.496Z,48.80
2022-07-29T12:03:33.438Z,49.00
2022-07-29T12:06:14.019Z,48.90
2022-07-29T12:07:02.022Z,51.60
2022-07-29T12:08:44.322Z,48.90
2022-07-29T12:11:23.419Z,48.80
2022-07-29T12:13:54.713Z,48.70
2022-07-29T12:16:25.530Z,48.80
2022-07-29T12:18:58.762Z,48.60
2022-07-29T12:21:26.772Z,48.50
2022-07-29T12:24:04.829Z,48.40
2022-07-29T12:26:36.360Z,48.30
2022-07-29T12:29:04.505Z,48.40
2022-07-29T12:31:43.379Z,48.60
2022-07-29T12:34:15.039Z,48.80
2022-07-29T12:36:44.047Z,49.20
2022-07-29T12:39:13.384Z,49.60
2022-07-29T12:41:40.926Z,49.70
2022-07-29T12:44:08.103Z,49.90
2022-07-29T12:46:35.290Z,50.00
2022-07-29T12:49:04.532Z,50.30
2022-07-29T12:51:37.738Z,50.20
2022-07-29T12:54:06.600Z,50.50
2022-07-29T12:56:43.297Z,50.50
2022-07-29T12:59:20.472Z,50.60
2022-07-29T13:01:50.848Z,50.20
2022-07-29T13:04:37.490Z,50.30
2022-07-29T13:07:08.209Z,50.00
2022-07-29T13:09:48.834Z,49.40
2022-07-29T13:12:16.316Z,49.20
2022-07-29T13:14:48.933Z,48.50
2022-07-29T13:17:23.833Z,48.90
2022-07-29T13:20:10.257Z,48.80
2022-07-29T13:22:37.706Z,49.00
2022-07-29T13:25:07.715Z,48.30
2022-07-29T13:27:38.304Z,48.10
2022-07-29T13:30:09.387Z,47.90
2022-07-29T13:32:37.649Z,48.00
2022-07-29T13:35:08.958Z,47.90
2022-07-29T13:37:39.609Z,47.10
2022-07-29T13:40:10.323Z,46.60
2022-07-29T13:42:37.768Z,45.90
2022-07-29T13:45:07.550Z,45.50
2022-07-29T13:47:34.815Z,44.90
2022-07-29T13:50:02.983Z,44.50
2022-07-29T13:52:30.417Z,44.00
2022-07-29T13:54:57.594Z,43.80
2022-07-29T13:57:25.097Z,44.10
2022-07-29T13:59:54.382Z,43.70
2022-07-29T14:02:25.648Z,43.10
2022-07-29T14:04:56.607Z,42.30
2022-07-29T14:07:24.346Z,42.10
2022-07-29T14:09:52.137Z,41.90
2022-07-29T14:12:20.025Z,41.90
2022-07-29T14:14:47.522Z,42.00
2022-07-29T14:17:15.948Z,41.60
2022-07-29T14:19:43.826Z,41.30
2022-07-29T14:22:11.045Z,41.00
2022-07-29T14:24:39.177Z,40.90
2022-07-29T14:27:08.859Z,41.00
2022-07-29T14:29:39.055Z,40.90
2022-07-29T14:32:15.818Z,40.90
2022-07-29T14:34:43.521Z,40.90
2022-07-29T14:37:10.808Z,41.20
2022-07-29T14:39:43.579Z,41.20
2022-07-29T14:42:12.714Z,41.50
2022-07-29T14:44:42.571Z,42.00
2022-07-29T14:47:10.381Z,42.40
2022-07-29T14:49:38.242Z,42.60
2022-07-29T14:52:05.872Z,42.40
2022-07-29T14:54:33.477Z,41.60
2022-07-29T14:57:01.282Z,40.70
2022-07-29T14:59:28.694Z,39.60
2022-07-29T15:01:56.381Z,38.90
2022-07-29T15:04:24.052Z,37.70
2022-07-29T15:06:51.521Z,36.80
2022-07-29T15:09:18.999Z,35.80
2022-07-29T15:11:46.134Z,35.30
2022-07-29T15:14:13.169Z,34.60
2022-07-29T15:16:41.967Z,33.80
2022-07-29T15:19:11.565Z,33.10
2022-07-29T15:21:41.611Z,32.30
2022-07-29T15:24:17.474Z,32.50
2022-07-29T15:26:45.026Z,32.10
2022-07-29T15:29:12.291Z,32.20
2022-07-29T15:31:39.386Z,30.90
2022-07-29T15:34:07.735Z,30.60
2022-07-29T15:36:51.357Z,31.50
2022-07-29T15:39:21.985Z,30.10
2022-07-29T15:41:49.696Z,29.90
2022-07-29T15:44:16.832Z,29.80
2022-07-29T15:47:02.518Z,29.40
2022-07-29T15:49:47.887Z,29.10
2022-07-29T15:52:26.052Z,28.60
2022-07-29T15:54:55.620Z,28.50
2022-07-29T15:57:23.671Z,28.20
2022-07-29T15:59:51.317Z,28.00
2022-07-29T16:02:18.640Z,28.20
2022-07-29T16:04:45.842Z,27.90
2022-07-29T16:07:14.176Z,27.80
2022-07-29T16:09:42.801Z,27.80
2022-07-29T16:12:15.398Z,27.50
2022-07-29T16:14:44.363Z,27.50
2022-07-29T16:17:14.895Z,27.30
2022-07-29T16:19:44.092Z,27.50
2022-07-29T16:22:11.998Z,27.40
2022-07-29T16:24:39.527Z,27.40
2022-07-29T16:27:07.051Z,27.40
2022-07-29T16:29:34.303Z,27.40
2022-07-29T16:32:01.901Z,27.40
2022-07-29T16:34:29.769Z,27.60
2022-07-29T16:36:57.088Z,27.80
2022-07-29T16:39:24.265Z,27.80
2022-07-29T16:41:51.491Z,27.90
2022-07-29T16:44:18.634Z,28.20
2022-07-29T16:46:45.872Z,28.50
2022-07-29T16:49:19.090Z,28.70
2022-07-29T16:51:47.957Z,28.70
2022-07-29T16:54:15.391Z,29.10
2022-07-29T16:56:42.524Z,29.10
2022-07-29T16:59:09.627Z,29.40
2022-07-29T17:01:37.299Z,29.70
2022-07-29T17:04:07.185Z,30.00
2022-07-29T17:06:40.487Z,30.30
2022-07-29T17:09:09.949Z,30.10
2022-07-29T17:11:51.684Z,30.00
2022-07-29T17:14:26.898Z,29.80
2022-07-29T17:17:01.030Z,30.60
2022-07-29T17:19:35.471Z,31.30
2022-07-29T17:22:11.615Z,32.00
2022-07-29T17:24:41.090Z,32.70
2022-07-29T17:27:09.481Z,33.20
2022-07-29T17:29:37.019Z,33.70
2022-07-29T17:32:07.772Z,34.00
2022-07-29T17:34:41.112Z,34.10
2022-07-29T17:37:12.190Z,34.30
2022-07-29T17:39:41.726Z,34.70
2022-07-29T17:42:11.128Z,35.10
2022-07-29T17:44:38.817Z,35.30
2022-07-29T17:47:07.925Z,35.50
2022-07-29T17:49:44.293Z,35.50
2022-07-29T17:52:11.431Z,35.80
2022-07-29T17:54:38.543Z,36.20
2022-07-29T17:57:05.617Z,36.50
2022-07-29T17:59:32.859Z,37.00
2022-07-29T18:02:00.225Z,37.40
2022-07-29T18:04:28.914Z,38.20
2022-07-29T18:06:56.511Z,38.60
2022-07-29T18:09:23.909Z,39.10
2022-07-29T18:11:51.977Z,39.70
2022-07-29T18:14:19.200Z,40.30
2022-07-29T18:16:47.586Z,40.90
2022-07-29T18:19:14.778Z,41.40
2022-07-29T18:21:53.874Z,42.20
2022-07-29T18:24:27.459Z,42.50
2022-07-29T18:26:54.824Z,43.60
2022-07-29T18:29:22.214Z,43.60
2022-07-29T18:31:49.545Z,44.20
2022-07-29T18:34:17.244Z,44.70
2022-07-29T18:36:45.920Z,45.10
2022-07-29T18:39:20.998Z,45.60
2022-07-29T18:41:51.257Z,46.30
2022-07-29T18:44:21.691Z,46.70
2022-07-29T18:46:50.167Z,46.60
2022-07-29T18:49:17.807Z,46.50
2022-07-29T18:51:44.907Z,46.80
2022-07-29T18:54:13.428Z,47.40
2022-07-29T18:56:41.599Z,47.80
2022-07-29T18:59:08.833Z,48.00
2022-07-29T19:01:37.087Z,48.30
2022-07-29T19:04:05.493Z,48.60
2022-07-29T19:06:32.853Z,49.10
2022-07-29T19:09:00.521Z,49.30
2022-07-29T19:11:27.712Z,49.60
2022-07-29T19:13:55.155Z,49.90
2022-07-29T19:16:22.522Z,50.10
2022-07-29T19:18:49.638Z,50.60
2022-07-29T19:21:17.390Z,50.70
2022-07-29T19:24:01.845Z,50.90
2022-07-29T19:26:33.420Z,52.40
2022-07-29T19:29:00.488Z,51.70
2022-07-29T19:31:28.133Z,52.20
2022-07-29T19:33:55.422Z,52.60
2022-07-29T19:36:22.892Z,52.80
2022-07-29T19:38:50.027Z,53.20
2022-07-29T19:41:17.290Z,53.40
2022-07-29T19:43:51.993Z,53.60
2022-07-29T19:46:21.645Z,53.80
2022-07-29T19:48:49.389Z,54.30
2022-07-29T19:51:17.285Z,54.50
2022-07-29T19:53:44.454Z,54.80
2022-07-29T19:56:11.802Z,55.10
2022-07-29T19:58:40.703Z,55.20
2022-07-29T20:01:10.617Z,55.40
2022-07-29T20:03:39.998Z,55.80
2022-07-29T20:06:08.093Z,55.80
2022-07-29T20:08:35.490Z,56.10
2022-07-29T20:11:03.446Z,56.20
2022-07-29T20:13:32.984Z,56.40
2022-07-29T20:16:01.212Z,56.50
2022-07-29T20:18:28.484Z,56.40
2022-07-29T20:20:57.560Z,56.80
2022-07-29T20:23:24.986Z,56.60
2022-07-29T20:25:52.633Z,56.80
2022-07-29T20:28:28.526Z,57.00
2022-07-29T20:30:55.784Z,57.70
2022-07-29T20:33:22.929Z,57.30
2022-07-29T20:35:50.230Z,57.60
2022-07-29T20:38:18.473Z,57.70
2022-07-29T20:40:46.318Z,57.80
2022-07-29T20:43:13.623Z,58.00
2022-07-29T20:45:40.990Z,58.00
2022-07-29T20:48:08.575Z,58.00
2022-07-29T20:50:35.894Z,58.20
2022-07-29T20:53:03.415Z,58.40
2022-07-29T20:55:31.943Z,58.50
2022-07-29T20:57:59.475Z,58.50
2022-07-29T21:00:26.796Z,58.50
2022-07-29T21:02:54.302Z,58.80
2022-07-29T21:05:21.365Z,59.20
2022-07-29T21:07:48.539Z,59.10
2022-07-29T21:10:18.169Z,59.70
2022-07-29T21:12:49.270Z,60.10
2022-07-29T21:15:16.876Z,64.00
2022-07-29T21:17:47.234Z,62.20
2022-07-29T21:20:19.453Z,61.80
2022-07-29T21:22:46.789Z,62.40
2022-07-29T21:25:13.985Z,62.60
2022-07-29T21:27:59.921Z,61.90
2022-07-29T21:30:28.084Z,62.00
2022-07-29T21:32:55.543Z,61.90
2022-07-29T21:35:52.163Z,61.90
2022-07-29T21:38:09.957Z,61.60
2022-07-29T21:40:37.335Z,61.50
2022-07-29T21:43:05.010Z,61.60
2022-07-29T21:45:32.329Z,61.60
2022-07-29T21:47:59.684Z,61.60
2022-07-29T21:50:27.028Z,61.80
2022-07-29T21:52:54.385Z,61.70
2022-07-29T21:55:23.010Z,61.80
2022-07-29T21:57:56.621Z,61.90
2022-07-29T22:00:25.570Z,62.10
2022-07-29T22:02:56.009Z,62.20
2022-07-29T22:05:24.052Z,62.60
2022-07-29T22:07:55.568Z,62.60
2022-07-29T22:10:26.957Z,62.80
2022-07-29T22:12:56.494Z,63.20
2022-07-29T22:15:24.513Z,63.00
2022-07-29T22:17:52.327Z,63.20
2022-07-29T22:20:20.265Z,63.20
2022-07-29T22:22:48.208Z,63.60
2022-07-29T22:25:16.898Z,63.90
2022-07-29T22:27:44.241Z,63.90
2022-07-29T22:30:12.114Z,63.90
2022-07-29T22:32:39.442Z,63.90
2022-07-29T22:35:07.200Z,64.00
2022-07-29T22:37:34.377Z,64.00
2022-07-29T22:40:02.177Z,63.90
2022-07-29T22:42:31.733Z,63.90
2022-07-29T22:44:58.672Z,64.00
2022-07-29T22:47:46.679Z,63.90
2022-07-29T22:50:13.033Z,63.90
2022-07-29T22:52:40.337Z,63.90
2022-07-29T22:55:07.783Z,64.30
2022-07-29T22:57:34.869Z,64.70
2022-07-29T23:00:02.631Z,65.20
2022-07-29T23:02:29.894Z,66.70
2022-07-29T23:04:57.213Z,66.00
2022-07-29T23:07:24.629Z,66.70
2022-07-29T23:09:51.957Z,67.60
2022-07-29T23:12:19.048Z,68.60
2022-07-29T23:14:46.298Z,69.40
2022-07-29T23:17:13.627Z,69.40
2022-07-29T23:19:41.120Z,70.00
2022-07-29T23:22:08.481Z,70.20
2022-07-29T23:24:35.421Z,70.50
2022-07-29T23:27:02.850Z,71.00
2022-07-29T23:29:32.803Z,71.40
2022-07-29T23:32:03.581Z,72.20
2022-07-29T23:34:30.676Z,72.40
2022-07-29T23:36:57.846Z,72.40
2022-07-29T23:39:24.886Z,72.80
2022-07-29T23:41:52.628Z,73.90
2022-07-29T23:44:19.930Z,74.30
2022-07-29T23:46:46.990Z,74.00
2022-07-29T23:49:14.497Z,74.40
2022-07-29T23:51:41.589Z,74.30
2022-07-29T23:54:08.689Z,74.40
2022-07-29T23:56:35.915Z,74.90
2022-07-29T23:59:05.720Z,76.00
